sensor_id;sensor_type;location;lat;lon;timestamp;P1;durP1;ratioP1;P2;durP2;ratioP2
48733;SDS011;34530;52.084;5.146;2023-02-17T00:02:24;3.13;;;2.83;;
48733;SDS011;34530;52.084;5.146;2023-02-17T00:04:51;2.90;;;2.58;;
48733;SDS011;34530;52.084;5.146;2023-02-17T00:07:17;4.10;;;3.13;;
48733;SDS011;34530;52.084;5.146;2023-02-17T00:09:43;3.45;;;2.80;;
48733;SDS011;34530;52.084;5.146;2023-02-17T00:12:09;3.35;;;2.70;;
48733;SDS011;34530;52.084;5.146;2023-02-17T00:14:34;5.30;;;3.35;;
48733;SDS011;34530;52.084;5.146;2023-02-17T01:43:14;4.05;;;3.28;;
48733;SDS011;34530;52.084;5.146;2023-02-17T01:45:44;6.18;;;2.95;;
48733;SDS011;34530;52.084;5.146;2023-02-17T01:48:14;3.60;;;3.10;;
48733;SDS011;34530;52.084;5.146;2023-02-17T01:50:44;4.43;;;3.30;;
48733;SDS011;34530;52.084;5.146;2023-02-17T01:53:14;6.40;;;3.30;;
48733;SDS011;34530;52.084;5.146;2023-02-17T01:55:44;6.97;;;3.42;;
48733;SDS011;34530;52.084;5.146;2023-02-17T01:58:11;5.13;;;3.35;;
48733;SDS011;34530;52.084;5.146;2023-02-17T02:00:39;5.00;;;3.05;;
48733;SDS011;34530;52.084;5.146;2023-02-17T02:03:06;4.53;;;2.88;;
48733;SDS011;34530;52.084;5.146;2023-02-17T02:05:34;4.68;;;3.35;;
48733;SDS011;34530;52.084;5.146;2023-02-17T02:08:01;4.32;;;3.30;;
48733;SDS011;34530;52.084;5.146;2023-02-17T02:10:27;4.43;;;3.13;;
48733;SDS011;34530;52.084;5.146;2023-02-17T02:12:52;5.10;;;3.58;;
48733;SDS011;34530;52.084;5.146;2023-02-17T02:15:21;6.75;;;3.30;;
48733;SDS011;34530;52.084;5.146;2023-02-17T02:29:06;8.10;;;3.72;;
48733;SDS011;34530;52.084;5.146;2023-02-17T02:34:41;5.60;;;3.50;;
48733;SDS011;34530;52.084;5.146;2023-02-17T02:40:39;5.90;;;3.58;;
48733;SDS011;34530;52.084;5.146;2023-02-17T02:43:11;6.72;;;3.60;;
48733;SDS011;34530;52.084;5.146;2023-02-17T02:45:38;5.50;;;3.40;;
48733;SDS011;34530;52.084;5.146;2023-02-17T02:48:04;6.53;;;3.70;;
48733;SDS011;34530;52.084;5.146;2023-02-17T02:53:35;6.20;;;3.53;;
48733;SDS011;34530;52.084;5.146;2023-02-17T03:07:17;6.80;;;3.97;;
48733;SDS011;34530;52.084;5.146;2023-02-17T03:09:51;5.28;;;3.85;;
48733;SDS011;34530;52.084;5.146;2023-02-17T03:12:19;7.97;;;4.03;;
48733;SDS011;34530;52.084;5.146;2023-02-17T03:14:47;5.55;;;3.88;;
48733;SDS011;34530;52.084;5.146;2023-02-17T03:17:16;5.88;;;3.60;;
48733;SDS011;34530;52.084;5.146;2023-02-17T03:19:42;5.50;;;3.58;;
48733;SDS011;34530;52.084;5.146;2023-02-17T03:24:45;4.50;;;3.58;;
48733;SDS011;34530;52.084;5.146;2023-02-17T03:27:11;6.15;;;3.85;;
48733;SDS011;34530;52.084;5.146;2023-02-17T03:29:36;6.80;;;4.25;;
48733;SDS011;34530;52.084;5.146;2023-02-17T03:32:02;5.07;;;3.63;;
48733;SDS011;34530;52.084;5.146;2023-02-17T03:34:28;6.15;;;3.45;;
48733;SDS011;34530;52.084;5.146;2023-02-17T03:36:56;8.32;;;4.25;;
48733;SDS011;34530;52.084;5.146;2023-02-17T03:39:21;5.47;;;3.60;;
48733;SDS011;34530;52.084;5.146;2023-02-17T03:41:47;5.57;;;3.70;;
48733;SDS011;34530;52.084;5.146;2023-02-17T03:44:15;7.88;;;3.97;;
48733;SDS011;34530;52.084;5.146;2023-02-17T03:46:42;6.47;;;4.15;;
48733;SDS011;34530;52.084;5.146;2023-02-17T03:49:08;5.07;;;3.95;;
48733;SDS011;34530;52.084;5.146;2023-02-17T03:51:33;6.22;;;3.60;;
48733;SDS011;34530;52.084;5.146;2023-02-17T03:53:59;6.70;;;4.18;;
48733;SDS011;34530;52.084;5.146;2023-02-17T03:56:25;6.20;;;4.03;;
48733;SDS011;34530;52.084;5.146;2023-02-17T03:58:50;6.43;;;4.03;;
48733;SDS011;34530;52.084;5.146;2023-02-17T04:01:16;6.85;;;4.45;;
48733;SDS011;34530;52.084;5.146;2023-02-17T04:03:42;7.70;;;4.50;;
48733;SDS011;34530;52.084;5.146;2023-02-17T04:06:08;7.45;;;4.07;;
48733;SDS011;34530;52.084;5.146;2023-02-17T04:08:35;7.25;;;4.45;;
48733;SDS011;34530;52.084;5.146;2023-02-17T04:11:01;6.63;;;4.47;;
48733;SDS011;34530;52.084;5.146;2023-02-17T04:13:27;6.55;;;4.40;;
48733;SDS011;34530;52.084;5.146;2023-02-17T04:15:53;6.72;;;4.40;;
48733;SDS011;34530;52.084;5.146;2023-02-17T04:18:19;8.55;;;4.60;;
48733;SDS011;34530;52.084;5.146;2023-02-17T04:20:47;8.35;;;4.60;;
48733;SDS011;34530;52.084;5.146;2023-02-17T04:23:13;7.95;;;5.03;;
48733;SDS011;34530;52.084;5.146;2023-02-17T04:25:39;6.70;;;5.00;;
48733;SDS011;34530;52.084;5.146;2023-02-17T04:28:05;7.97;;;5.13;;
48733;SDS011;34530;52.084;5.146;2023-02-17T04:30:32;9.43;;;5.78;;
48733;SDS011;34530;52.084;5.146;2023-02-17T04:32:58;6.93;;;5.55;;
48733;SDS011;34530;52.084;5.146;2023-02-17T04:35:24;7.55;;;5.20;;
48733;SDS011;34530;52.084;5.146;2023-02-17T04:37:50;8.57;;;5.18;;
48733;SDS011;34530;52.084;5.146;2023-02-17T04:40:16;8.43;;;5.93;;
48733;SDS011;34530;52.084;5.146;2023-02-17T04:42:42;9.77;;;5.97;;
48733;SDS011;34530;52.084;5.146;2023-02-17T04:45:08;9.02;;;6.40;;
48733;SDS011;34530;52.084;5.146;2023-02-17T04:47:34;8.45;;;5.78;;
48733;SDS011;34530;52.084;5.146;2023-02-17T04:49:59;8.32;;;5.72;;
48733;SDS011;34530;52.084;5.146;2023-02-17T04:52:25;9.15;;;5.88;;
48733;SDS011;34530;52.084;5.146;2023-02-17T04:54:53;7.57;;;5.75;;
48733;SDS011;34530;52.084;5.146;2023-02-17T04:57:19;7.47;;;5.88;;
48733;SDS011;34530;52.084;5.146;2023-02-17T04:59:45;8.43;;;5.88;;
48733;SDS011;34530;52.084;5.146;2023-02-17T05:02:10;8.57;;;6.03;;
48733;SDS011;34530;52.084;5.146;2023-02-17T05:04:36;10.88;;;6.10;;
48733;SDS011;34530;52.084;5.146;2023-02-17T05:07:02;8.68;;;6.15;;
48733;SDS011;34530;52.084;5.146;2023-02-17T05:09:27;8.85;;;5.47;;
48733;SDS011;34530;52.084;5.146;2023-02-17T05:11:53;6.97;;;5.72;;
48733;SDS011;34530;52.084;5.146;2023-02-17T05:14:18;8.15;;;5.85;;
48733;SDS011;34530;52.084;5.146;2023-02-17T05:16:44;8.80;;;5.85;;
48733;SDS011;34530;52.084;5.146;2023-02-17T05:19:10;8.43;;;5.97;;
48733;SDS011;34530;52.084;5.146;2023-02-17T05:21:35;7.22;;;5.22;;
48733;SDS011;34530;52.084;5.146;2023-02-17T05:24:01;7.80;;;6.18;;
48733;SDS011;34530;52.084;5.146;2023-02-17T05:26:27;7.75;;;6.03;;
48733;SDS011;34530;52.084;5.146;2023-02-17T05:28:53;9.50;;;6.15;;
48733;SDS011;34530;52.084;5.146;2023-02-17T05:31:19;9.65;;;5.80;;
48733;SDS011;34530;52.084;5.146;2023-02-17T05:33:45;7.95;;;5.85;;
48733;SDS011;34530;52.084;5.146;2023-02-17T05:36:10;9.32;;;5.97;;
48733;SDS011;34530;52.084;5.146;2023-02-17T05:38:37;8.70;;;6.18;;
48733;SDS011;34530;52.084;5.146;2023-02-17T05:41:03;7.15;;;5.68;;
48733;SDS011;34530;52.084;5.146;2023-02-17T05:43:29;8.30;;;5.97;;
48733;SDS011;34530;52.084;5.146;2023-02-17T05:45:55;9.95;;;6.05;;
48733;SDS011;34530;52.084;5.146;2023-02-17T05:48:21;9.05;;;6.20;;
48733;SDS011;34530;52.084;5.146;2023-02-17T05:50:46;8.45;;;5.80;;
48733;SDS011;34530;52.084;5.146;2023-02-17T05:53:12;6.97;;;5.70;;
48733;SDS011;34530;52.084;5.146;2023-02-17T05:55:37;7.70;;;6.05;;
48733;SDS011;34530;52.084;5.146;2023-02-17T05:58:03;6.63;;;5.57;;
48733;SDS011;34530;52.084;5.146;2023-02-17T06:00:29;8.50;;;6.07;;
48733;SDS011;34530;52.084;5.146;2023-02-17T06:02:55;7.75;;;6.30;;
48733;SDS011;34530;52.084;5.146;2023-02-17T06:05:20;8.15;;;6.35;;
48733;SDS011;34530;52.084;5.146;2023-02-17T06:07:46;8.35;;;6.28;;
48733;SDS011;34530;52.084;5.146;2023-02-17T06:10:12;8.02;;;6.75;;
48733;SDS011;34530;52.084;5.146;2023-02-17T06:12:37;8.13;;;6.15;;
48733;SDS011;34530;52.084;5.146;2023-02-17T06:15:04;8.23;;;6.68;;
48733;SDS011;34530;52.084;5.146;2023-02-17T06:17:30;9.02;;;6.25;;
48733;SDS011;34530;52.084;5.146;2023-02-17T06:19:56;8.82;;;6.63;;
48733;SDS011;34530;52.084;5.146;2023-02-17T06:22:21;9.38;;;7.05;;
48733;SDS011;34530;52.084;5.146;2023-02-17T06:24:49;9.35;;;6.53;;
48733;SDS011;34530;52.084;5.146;2023-02-17T06:27:15;8.65;;;6.28;;
48733;SDS011;34530;52.084;5.146;2023-02-17T06:29:40;8.85;;;5.75;;
48733;SDS011;34530;52.084;5.146;2023-02-17T06:32:06;8.52;;;6.13;;
48733;SDS011;34530;52.084;5.146;2023-02-17T06:34:31;10.45;;;6.80;;
48733;SDS011;34530;52.084;5.146;2023-02-17T06:36:57;11.18;;;7.03;;
48733;SDS011;34530;52.084;5.146;2023-02-17T06:39:23;7.85;;;5.72;;
48733;SDS011;34530;52.084;5.146;2023-02-17T06:41:49;8.90;;;6.45;;
48733;SDS011;34530;52.084;5.146;2023-02-17T06:44:14;8.40;;;6.88;;
48733;SDS011;34530;52.084;5.146;2023-02-17T06:46:40;7.13;;;6.32;;
48733;SDS011;34530;52.084;5.146;2023-02-17T06:49:05;10.07;;;6.18;;
48733;SDS011;34530;52.084;5.146;2023-02-17T06:51:31;10.00;;;6.70;;
48733;SDS011;34530;52.084;5.146;2023-02-17T06:53:57;7.78;;;6.50;;
48733;SDS011;34530;52.084;5.146;2023-02-17T06:56:22;8.15;;;6.82;;
48733;SDS011;34530;52.084;5.146;2023-02-17T06:58:48;10.27;;;6.72;;
48733;SDS011;34530;52.084;5.146;2023-02-17T07:01:18;7.28;;;6.20;;
48733;SDS011;34530;52.084;5.146;2023-02-17T07:03:45;8.80;;;6.45;;
48733;SDS011;34530;52.084;5.146;2023-02-17T07:06:11;7.80;;;6.53;;
48733;SDS011;34530;52.084;5.146;2023-02-17T07:08:37;8.90;;;7.00;;
48733;SDS011;34530;52.084;5.146;2023-02-17T07:11:07;8.77;;;6.32;;
48733;SDS011;34530;52.084;5.146;2023-02-17T07:13:34;9.15;;;6.22;;
48733;SDS011;34530;52.084;5.146;2023-02-17T07:16:00;8.02;;;6.45;;
48733;SDS011;34530;52.084;5.146;2023-02-17T07:18:25;11.75;;;7.18;;
48733;SDS011;34530;52.084;5.146;2023-02-17T07:20:51;9.43;;;6.88;;
48733;SDS011;34530;52.084;5.146;2023-02-17T07:23:17;7.68;;;6.63;;
48733;SDS011;34530;52.084;5.146;2023-02-17T07:25:42;10.85;;;7.18;;
48733;SDS011;34530;52.084;5.146;2023-02-17T07:28:08;10.45;;;7.15;;
48733;SDS011;34530;52.084;5.146;2023-02-17T07:30:40;9.75;;;6.55;;
48733;SDS011;34530;52.084;5.146;2023-02-17T07:33:07;8.82;;;6.95;;
48733;SDS011;34530;52.084;5.146;2023-02-17T07:35:33;25.17;;;9.75;;
48733;SDS011;34530;52.084;5.146;2023-02-17T07:37:59;29.55;;;11.32;;
48733;SDS011;34530;52.084;5.146;2023-02-17T07:40:26;24.83;;;10.55;;
48733;SDS011;34530;52.084;5.146;2023-02-17T07:42:52;20.40;;;9.45;;
48733;SDS011;34530;52.084;5.146;2023-02-17T07:45:18;22.17;;;10.55;;
48733;SDS011;34530;52.084;5.146;2023-02-17T07:47:44;21.92;;;10.05;;
48733;SDS011;34530;52.084;5.146;2023-02-17T07:50:10;18.13;;;9.13;;
48733;SDS011;34530;52.084;5.146;2023-02-17T07:52:36;28.90;;;9.98;;
48733;SDS011;34530;52.084;5.146;2023-02-17T07:55:02;18.38;;;8.45;;
48733;SDS011;34530;52.084;5.146;2023-02-17T07:57:28;17.05;;;8.30;;
48733;SDS011;34530;52.084;5.146;2023-02-17T07:59:54;16.20;;;8.10;;
48733;SDS011;34530;52.084;5.146;2023-02-17T08:02:19;15.27;;;8.40;;
48733;SDS011;34530;52.084;5.146;2023-02-17T08:04:45;16.13;;;7.85;;
48733;SDS011;34530;52.084;5.146;2023-02-17T08:07:11;18.85;;;9.00;;
48733;SDS011;34530;52.084;5.146;2023-02-17T08:09:37;15.80;;;7.88;;
48733;SDS011;34530;52.084;5.146;2023-02-17T08:12:23;18.40;;;8.02;;
48733;SDS011;34530;52.084;5.146;2023-02-17T08:15:07;18.90;;;7.45;;
48733;SDS011;34530;52.084;5.146;2023-02-17T08:17:35;15.65;;;7.90;;
48733;SDS011;34530;52.084;5.146;2023-02-17T08:20:01;14.50;;;8.00;;
48733;SDS011;34530;52.084;5.146;2023-02-17T08:22:26;11.48;;;8.15;;
48733;SDS011;34530;52.084;5.146;2023-02-17T08:24:52;15.13;;;8.35;;
48733;SDS011;34530;52.084;5.146;2023-02-17T08:27:18;15.60;;;7.90;;
48733;SDS011;34530;52.084;5.146;2023-02-17T08:29:44;12.60;;;7.82;;
48733;SDS011;34530;52.084;5.146;2023-02-17T08:32:10;10.10;;;7.38;;
48733;SDS011;34530;52.084;5.146;2023-02-17T08:34:37;10.13;;;7.32;;
48733;SDS011;34530;52.084;5.146;2023-02-17T08:37:03;15.02;;;7.00;;
48733;SDS011;34530;52.084;5.146;2023-02-17T08:39:30;14.68;;;7.43;;
48733;SDS011;34530;52.084;5.146;2023-02-17T08:41:56;15.15;;;7.40;;
48733;SDS011;34530;52.084;5.146;2023-02-17T08:44:22;11.98;;;7.30;;
48733;SDS011;34530;52.084;5.146;2023-02-17T08:46:48;12.93;;;6.85;;
48733;SDS011;34530;52.084;5.146;2023-02-17T08:49:15;14.10;;;7.30;;
48733;SDS011;34530;52.084;5.146;2023-02-17T08:51:42;14.38;;;7.72;;
48733;SDS011;34530;52.084;5.146;2023-02-17T08:54:08;13.55;;;7.22;;
48733;SDS011;34530;52.084;5.146;2023-02-17T08:56:35;10.93;;;7.25;;
48733;SDS011;34530;52.084;5.146;2023-02-17T08:59:02;9.85;;;7.22;;
48733;SDS011;34530;52.084;5.146;2023-02-17T09:01:29;11.70;;;6.95;;
48733;SDS011;34530;52.084;5.146;2023-02-17T09:03:55;12.10;;;7.15;;
48733;SDS011;34530;52.084;5.146;2023-02-17T09:06:22;7.82;;;6.40;;
48733;SDS011;34530;52.084;5.146;2023-02-17T09:08:48;14.85;;;7.50;;
48733;SDS011;34530;52.084;5.146;2023-02-17T09:11:14;14.75;;;7.57;;
48733;SDS011;34530;52.084;5.146;2023-02-17T09:13:43;14.07;;;6.85;;
48733;SDS011;34530;52.084;5.146;2023-02-17T09:16:09;10.80;;;7.15;;
48733;SDS011;34530;52.084;5.146;2023-02-17T09:18:35;9.68;;;6.80;;
48733;SDS011;34530;52.084;5.146;2023-02-17T09:21:07;9.30;;;6.70;;
48733;SDS011;34530;52.084;5.146;2023-02-17T09:23:34;8.80;;;6.22;;
48733;SDS011;34530;52.084;5.146;2023-02-17T09:26:03;9.52;;;6.35;;
48733;SDS011;34530;52.084;5.146;2023-02-17T09:28:31;9.63;;;6.78;;
48733;SDS011;34530;52.084;5.146;2023-02-17T09:30:57;9.82;;;6.70;;
48733;SDS011;34530;52.084;5.146;2023-02-17T09:33:23;7.93;;;6.65;;
48733;SDS011;34530;52.084;5.146;2023-02-17T09:35:49;8.95;;;7.10;;
48733;SDS011;34530;52.084;5.146;2023-02-17T09:38:15;12.70;;;6.75;;
48733;SDS011;34530;52.084;5.146;2023-02-17T09:40:42;9.82;;;6.72;;
48733;SDS011;34530;52.084;5.146;2023-02-17T09:43:14;11.40;;;7.13;;
48733;SDS011;34530;52.084;5.146;2023-02-17T09:45:51;9.52;;;6.75;;
48733;SDS011;34530;52.084;5.146;2023-02-17T09:48:22;7.80;;;6.82;;
48733;SDS011;34530;52.084;5.146;2023-02-17T09:50:59;8.75;;;6.55;;
48733;SDS011;34530;52.084;5.146;2023-02-17T09:53:38;8.38;;;6.78;;
48733;SDS011;34530;52.084;5.146;2023-02-17T09:56:09;9.45;;;6.88;;
48733;SDS011;34530;52.084;5.146;2023-02-17T09:58:49;10.25;;;6.80;;
48733;SDS011;34530;52.084;5.146;2023-02-17T10:01:20;12.43;;;7.32;;
48733;SDS011;34530;52.084;5.146;2023-02-17T10:06:43;10.35;;;6.18;;
48733;SDS011;34530;52.084;5.146;2023-02-17T10:09:16;10.80;;;6.68;;
48733;SDS011;34530;52.084;5.146;2023-02-17T10:11:53;9.55;;;6.40;;
48733;SDS011;34530;52.084;5.146;2023-02-17T10:20:27;9.82;;;6.78;;
48733;SDS011;34530;52.084;5.146;2023-02-17T10:22:54;8.05;;;6.20;;
48733;SDS011;34530;52.084;5.146;2023-02-17T10:25:38;9.00;;;6.18;;
48733;SDS011;34530;52.084;5.146;2023-02-17T10:28:49;8.38;;;6.55;;
48733;SDS011;34530;52.084;5.146;2023-02-17T10:31:11;8.57;;;5.97;;
48733;SDS011;34530;52.084;5.146;2023-02-17T10:36:58;8.52;;;5.80;;
48733;SDS011;34530;52.084;5.146;2023-02-17T10:42:03;9.48;;;6.18;;
48733;SDS011;34530;52.084;5.146;2023-02-17T10:44:29;7.28;;;5.90;;
48733;SDS011;34530;52.084;5.146;2023-02-17T10:47:00;7.18;;;5.80;;
48733;SDS011;34530;52.084;5.146;2023-02-17T10:49:28;8.40;;;5.68;;
48733;SDS011;34530;52.084;5.146;2023-02-17T10:52:40;7.75;;;5.97;;
48733;SDS011;34530;52.084;5.146;2023-02-17T10:54:56;7.97;;;5.70;;
48733;SDS011;34530;52.084;5.146;2023-02-17T10:57:34;9.38;;;5.93;;
48733;SDS011;34530;52.084;5.146;2023-02-17T11:00:03;7.78;;;5.40;;
48733;SDS011;34530;52.084;5.146;2023-02-17T11:02:34;7.47;;;5.10;;
48733;SDS011;34530;52.084;5.146;2023-02-17T11:05:05;8.05;;;5.68;;
48733;SDS011;34530;52.084;5.146;2023-02-17T11:07:32;8.70;;;6.03;;
48733;SDS011;34530;52.084;5.146;2023-02-17T11:12:52;6.68;;;5.00;;
48733;SDS011;34530;52.084;5.146;2023-02-17T11:15:25;7.07;;;5.63;;
48733;SDS011;34530;52.084;5.146;2023-02-17T11:17:53;8.70;;;5.43;;
48733;SDS011;34530;52.084;5.146;2023-02-17T11:22:47;10.13;;;5.53;;
48733;SDS011;34530;52.084;5.146;2023-02-17T11:25:28;8.02;;;5.22;;
48733;SDS011;34530;52.084;5.146;2023-02-17T11:28:01;6.85;;;5.38;;
48733;SDS011;34530;52.084;5.146;2023-02-17T11:30:34;7.80;;;5.32;;
48733;SDS011;34530;52.084;5.146;2023-02-17T11:33:13;7.38;;;5.03;;
48733;SDS011;34530;52.084;5.146;2023-02-17T11:38:20;7.15;;;5.30;;
48733;SDS011;34530;52.084;5.146;2023-02-17T11:43:21;6.13;;;4.72;;
48733;SDS011;34530;52.084;5.146;2023-02-17T11:51:41;8.48;;;5.20;;
48733;SDS011;34530;52.084;5.146;2023-02-17T11:57:11;7.00;;;4.57;;
48733;SDS011;34530;52.084;5.146;2023-02-17T12:27:24;11.57;;;6.80;;
48733;SDS011;34530;52.084;5.146;2023-02-17T12:32:33;11.80;;;7.68;;
48733;SDS011;34530;52.084;5.146;2023-02-17T12:37:50;15.05;;;8.75;;
48733;SDS011;34530;52.084;5.146;2023-02-17T12:40:34;16.65;;;9.38;;
48733;SDS011;34530;52.084;5.146;2023-02-17T12:43:13;16.13;;;9.25;;
48733;SDS011;34530;52.084;5.146;2023-02-17T12:45:53;17.40;;;9.13;;
48733;SDS011;34530;52.084;5.146;2023-02-17T12:48:34;16.20;;;9.40;;
48733;SDS011;34530;52.084;5.146;2023-02-17T12:51:21;16.55;;;10.27;;
48733;SDS011;34530;52.084;5.146;2023-02-17T12:59:35;15.15;;;8.02;;
48733;SDS011;34530;52.084;5.146;2023-02-17T13:02:10;14.57;;;7.68;;
48733;SDS011;34530;52.084;5.146;2023-02-17T13:04:38;15.93;;;7.38;;
48733;SDS011;34530;52.084;5.146;2023-02-17T13:07:16;13.50;;;6.82;;
48733;SDS011;34530;52.084;5.146;2023-02-17T13:10:05;13.30;;;6.80;;
48733;SDS011;34530;52.084;5.146;2023-02-17T13:12:41;14.38;;;6.90;;
48733;SDS011;34530;52.084;5.146;2023-02-17T13:17:58;14.30;;;6.53;;
48733;SDS011;34530;52.084;5.146;2023-02-17T13:20:28;12.20;;;5.55;;
48733;SDS011;34530;52.084;5.146;2023-02-17T13:23:13;14.25;;;6.10;;
48733;SDS011;34530;52.084;5.146;2023-02-17T13:26:00;9.95;;;5.13;;
48733;SDS011;34530;52.084;5.146;2023-02-17T13:31:52;12.27;;;5.15;;
48733;SDS011;34530;52.084;5.146;2023-02-17T13:34:25;9.27;;;4.90;;
48733;SDS011;34530;52.084;5.146;2023-02-17T13:40:02;8.82;;;5.28;;
48733;SDS011;34530;52.084;5.146;2023-02-17T13:42:43;8.30;;;4.70;;
48733;SDS011;34530;52.084;5.146;2023-02-17T13:48:13;11.55;;;4.85;;
48733;SDS011;34530;52.084;5.146;2023-02-17T13:50:46;10.20;;;4.70;;
48733;SDS011;34530;52.084;5.146;2023-02-17T13:53:36;11.20;;;5.18;;
48733;SDS011;34530;52.084;5.146;2023-02-17T13:56:22;12.43;;;4.65;;
48733;SDS011;34530;52.084;5.146;2023-02-17T13:58:52;14.73;;;5.18;;
48733;SDS011;34530;52.084;5.146;2023-02-17T14:01:19;10.85;;;4.95;;
48733;SDS011;34530;52.084;5.146;2023-02-17T14:03:52;12.70;;;5.25;;
48733;SDS011;34530;52.084;5.146;2023-02-17T14:06:21;13.77;;;5.15;;
48733;SDS011;34530;52.084;5.146;2023-02-17T14:08:53;13.48;;;5.22;;
48733;SDS011;34530;52.084;5.146;2023-02-17T14:11:22;16.33;;;5.20;;
48733;SDS011;34530;52.084;5.146;2023-02-17T14:13:50;13.55;;;4.97;;
48733;SDS011;34530;52.084;5.146;2023-02-17T14:19:03;19.00;;;4.78;;
48733;SDS011;34530;52.084;5.146;2023-02-17T14:21:29;11.75;;;4.55;;
48733;SDS011;34530;52.084;5.146;2023-02-17T14:23:56;11.82;;;5.10;;
48733;SDS011;34530;52.084;5.146;2023-02-17T14:26:41;13.48;;;5.20;;
48733;SDS011;34530;52.084;5.146;2023-02-17T14:29:12;16.17;;;5.13;;
48733;SDS011;34530;52.084;5.146;2023-02-17T14:31:39;14.52;;;4.60;;
48733;SDS011;34530;52.084;5.146;2023-02-17T14:36:44;11.43;;;4.22;;
48733;SDS011;34530;52.084;5.146;2023-02-17T14:39:11;10.75;;;4.07;;
48733;SDS011;34530;52.084;5.146;2023-02-17T14:41:38;15.73;;;4.50;;
48733;SDS011;34530;52.084;5.146;2023-02-17T14:44:04;12.25;;;4.40;;
48733;SDS011;34530;52.084;5.146;2023-02-17T14:46:30;11.68;;;4.35;;
48733;SDS011;34530;52.084;5.146;2023-02-17T14:48:56;15.10;;;3.92;;
48733;SDS011;34530;52.084;5.146;2023-02-17T14:51:23;12.48;;;4.70;;
48733;SDS011;34530;52.084;5.146;2023-02-17T14:53:56;11.30;;;4.90;;
48733;SDS011;34530;52.084;5.146;2023-02-17T14:56:26;13.05;;;4.63;;
48733;SDS011;34530;52.084;5.146;2023-02-17T14:58:59;11.30;;;4.65;;
48733;SDS011;34530;52.084;5.146;2023-02-17T15:01:25;13.27;;;3.85;;
48733;SDS011;34530;52.084;5.146;2023-02-17T15:03:51;11.40;;;4.53;;
48733;SDS011;34530;52.084;5.146;2023-02-17T15:06:21;12.57;;;3.75;;
48733;SDS011;34530;52.084;5.146;2023-02-17T15:08:49;10.63;;;3.67;;
48733;SDS011;34530;52.084;5.146;2023-02-17T15:11:19;10.20;;;3.67;;
48733;SDS011;34530;52.084;5.146;2023-02-17T15:13:56;11.10;;;3.45;;
48733;SDS011;34530;52.084;5.146;2023-02-17T15:16:21;9.85;;;3.92;;
48733;SDS011;34530;52.084;5.146;2023-02-17T15:18:47;11.35;;;4.18;;
48733;SDS011;34530;52.084;5.146;2023-02-17T15:21:36;9.40;;;3.67;;
48733;SDS011;34530;52.084;5.146;2023-02-17T15:24:02;10.70;;;3.50;;
48733;SDS011;34530;52.084;5.146;2023-02-17T15:26:32;9.00;;;3.67;;
48733;SDS011;34530;52.084;5.146;2023-02-17T15:28:58;13.07;;;3.45;;
48733;SDS011;34530;52.084;5.146;2023-02-17T15:31:24;8.18;;;3.35;;
48733;SDS011;34530;52.084;5.146;2023-02-17T15:33:54;12.25;;;3.85;;
48733;SDS011;34530;52.084;5.146;2023-02-17T15:36:22;9.93;;;3.90;;
48733;SDS011;34530;52.084;5.146;2023-02-17T15:38:48;9.48;;;3.38;;
48733;SDS011;34530;52.084;5.146;2023-02-17T15:41:21;8.55;;;3.60;;
48733;SDS011;34530;52.084;5.146;2023-02-17T15:43:49;10.00;;;3.72;;
48733;SDS011;34530;52.084;5.146;2023-02-17T15:46:16;8.60;;;3.38;;
48733;SDS011;34530;52.084;5.146;2023-02-17T15:48:44;9.35;;;3.15;;
48733;SDS011;34530;52.084;5.146;2023-02-17T15:51:16;11.68;;;3.85;;
48733;SDS011;34530;52.084;5.146;2023-02-17T15:53:46;6.88;;;3.15;;
48733;SDS011;34530;52.084;5.146;2023-02-17T15:56:14;13.90;;;3.40;;
48733;SDS011;34530;52.084;5.146;2023-02-17T15:58:47;11.32;;;3.47;;
48733;SDS011;34530;52.084;5.146;2023-02-17T16:01:46;11.35;;;3.17;;
48733;SDS011;34530;52.084;5.146;2023-02-17T16:04:07;9.00;;;3.08;;
48733;SDS011;34530;52.084;5.146;2023-02-17T16:06:35;8.30;;;2.97;;
48733;SDS011;34530;52.084;5.146;2023-02-17T16:09:00;10.45;;;3.30;;
48733;SDS011;34530;52.084;5.146;2023-02-17T16:11:27;12.50;;;4.07;;
48733;SDS011;34530;52.084;5.146;2023-02-17T16:13:53;7.50;;;2.92;;
48733;SDS011;34530;52.084;5.146;2023-02-17T16:16:29;10.18;;;3.28;;
48733;SDS011;34530;52.084;5.146;2023-02-17T16:18:57;9.98;;;3.22;;
48733;SDS011;34530;52.084;5.146;2023-02-17T16:21:23;10.23;;;3.45;;
48733;SDS011;34530;52.084;5.146;2023-02-17T16:23:49;14.27;;;3.50;;
48733;SDS011;34530;52.084;5.146;2023-02-17T16:28:56;9.30;;;3.25;;
48733;SDS011;34530;52.084;5.146;2023-02-17T16:31:22;10.48;;;2.92;;
48733;SDS011;34530;52.084;5.146;2023-02-17T16:33:48;7.32;;;2.90;;
48733;SDS011;34530;52.084;5.146;2023-02-17T16:36:16;11.75;;;3.35;;
48733;SDS011;34530;52.084;5.146;2023-02-17T16:38:43;12.48;;;3.72;;
48733;SDS011;34530;52.084;5.146;2023-02-17T16:41:13;6.68;;;3.08;;
48733;SDS011;34530;52.084;5.146;2023-02-17T16:43:39;9.85;;;4.28;;
48733;SDS011;34530;52.084;5.146;2023-02-17T16:46:06;7.60;;;3.63;;
48733;SDS011;34530;52.084;5.146;2023-02-17T16:48:53;8.50;;;2.92;;
48733;SDS011;34530;52.084;5.146;2023-02-17T16:51:19;9.23;;;3.40;;
48733;SDS011;34530;52.084;5.146;2023-02-17T16:53:45;11.15;;;3.00;;
48733;SDS011;34530;52.084;5.146;2023-02-17T16:56:15;10.02;;;3.53;;
48733;SDS011;34530;52.084;5.146;2023-02-17T16:58:45;8.15;;;2.95;;
48733;SDS011;34530;52.084;5.146;2023-02-17T17:01:11;7.25;;;3.15;;
48733;SDS011;34530;52.084;5.146;2023-02-17T17:03:37;10.55;;;3.53;;
48733;SDS011;34530;52.084;5.146;2023-02-17T17:06:14;10.40;;;3.50;;
48733;SDS011;34530;52.084;5.146;2023-02-17T17:08:41;8.88;;;3.30;;
48733;SDS011;34530;52.084;5.146;2023-02-17T17:11:08;13.07;;;3.72;;
48733;SDS011;34530;52.084;5.146;2023-02-17T17:13:37;10.20;;;3.05;;
48733;SDS011;34530;52.084;5.146;2023-02-17T17:16:03;10.18;;;3.22;;
48733;SDS011;34530;52.084;5.146;2023-02-17T17:18:29;8.88;;;3.20;;
48733;SDS011;34530;52.084;5.146;2023-02-17T17:20:55;13.27;;;4.03;;
48733;SDS011;34530;52.084;5.146;2023-02-17T17:23:21;11.75;;;3.60;;
48733;SDS011;34530;52.084;5.146;2023-02-17T17:25:46;9.02;;;3.10;;
48733;SDS011;34530;52.084;5.146;2023-02-17T17:28:17;9.68;;;3.33;;
48733;SDS011;34530;52.084;5.146;2023-02-17T17:30:43;10.95;;;3.78;;
48733;SDS011;34530;52.084;5.146;2023-02-17T17:33:09;9.10;;;3.28;;
48733;SDS011;34530;52.084;5.146;2023-02-17T17:35:35;10.20;;;3.13;;
48733;SDS011;34530;52.084;5.146;2023-02-17T17:38:01;7.85;;;3.40;;
48733;SDS011;34530;52.084;5.146;2023-02-17T17:40:28;9.63;;;3.50;;
48733;SDS011;34530;52.084;5.146;2023-02-17T17:42:57;10.25;;;3.63;;
48733;SDS011;34530;52.084;5.146;2023-02-17T17:45:23;7.10;;;3.22;;
48733;SDS011;34530;52.084;5.146;2023-02-17T17:47:49;7.95;;;3.13;;
48733;SDS011;34530;52.084;5.146;2023-02-17T17:50:20;11.27;;;3.55;;
48733;SDS011;34530;52.084;5.146;2023-02-17T17:52:47;9.05;;;3.35;;
48733;SDS011;34530;52.084;5.146;2023-02-17T17:55:13;10.25;;;3.72;;
48733;SDS011;34530;52.084;5.146;2023-02-17T17:57:40;8.35;;;3.40;;
48733;SDS011;34530;52.084;5.146;2023-02-17T18:00:06;8.70;;;3.58;;
48733;SDS011;34530;52.084;5.146;2023-02-17T18:02:33;9.73;;;3.63;;
48733;SDS011;34530;52.084;5.146;2023-02-17T18:04:59;13.57;;;4.00;;
48733;SDS011;34530;52.084;5.146;2023-02-17T18:07:24;12.20;;;3.72;;
48733;SDS011;34530;52.084;5.146;2023-02-17T18:09:51;8.88;;;3.38;;
48733;SDS011;34530;52.084;5.146;2023-02-17T18:12:16;9.00;;;3.53;;
48733;SDS011;34530;52.084;5.146;2023-02-17T18:14:44;7.70;;;3.33;;
48733;SDS011;34530;52.084;5.146;2023-02-17T18:17:15;9.48;;;3.58;;
48733;SDS011;34530;52.084;5.146;2023-02-17T18:19:42;7.90;;;3.15;;
48733;SDS011;34530;52.084;5.146;2023-02-17T18:22:09;9.55;;;3.83;;
48733;SDS011;34530;52.084;5.146;2023-02-17T18:24:35;13.18;;;3.80;;
48733;SDS011;34530;52.084;5.146;2023-02-17T18:27:01;10.77;;;4.00;;